sensor_id;sensor_type;location;lat;lon;timestamp;P1;durP1;ratioP1;P2;durP2;ratioP2
68315;SDS011;55508;54.368;18.406;2024-02-21T00:01:15;23.92;;;5.97;;
68315;SDS011;55508;54.368;18.406;2024-02-21T00:03:43;26.27;;;5.70;;
68315;SDS011;55508;54.368;18.406;2024-02-21T00:06:11;28.92;;;6.00;;
68315;SDS011;55508;54.368;18.406;2024-02-21T00:08:38;23.50;;;5.53;;
68315;SDS011;55508;54.368;18.406;2024-02-21T00:11:06;29.02;;;5.28;;
68315;SDS011;55508;54.368;18.406;2024-02-21T00:13:33;22.63;;;5.53;;
68315;SDS011;55508;54.368;18.406;2024-02-21T00:16:01;31.27;;;6.47;;
68315;SDS011;55508;54.368;18.406;2024-02-21T00:18:29;31.95;;;6.63;;
68315;SDS011;55508;54.368;18.406;2024-02-21T00:20:56;27.02;;;5.75;;
68315;SDS011;55508;54.368;18.406;2024-02-21T00:23:23;28.25;;;5.13;;
68315;SDS011;55508;54.368;18.406;2024-02-21T00:25:50;24.25;;;5.50;;
68315;SDS011;55508;54.368;18.406;2024-02-21T00:28:18;28.65;;;6.25;;
68315;SDS011;55508;54.368;18.406;2024-02-21T00:30:45;32.33;;;5.63;;
68315;SDS011;55508;54.368;18.406;2024-02-21T00:33:14;26.10;;;5.50;;
68315;SDS011;55508;54.368;18.406;2024-02-21T00:35:42;27.38;;;5.40;;
68315;SDS011;55508;54.368;18.406;2024-02-21T00:38:09;34.28;;;5.28;;
68315;SDS011;55508;54.368;18.406;2024-02-21T00:40:36;34.65;;;6.07;;
68315;SDS011;55508;54.368;18.406;2024-02-21T00:43:04;25.30;;;5.35;;
68315;SDS011;55508;54.368;18.406;2024-02-21T00:45:31;24.33;;;5.65;;
68315;SDS011;55508;54.368;18.406;2024-02-21T00:47:58;26.77;;;5.95;;
68315;SDS011;55508;54.368;18.406;2024-02-21T00:50:26;21.23;;;5.10;;
68315;SDS011;55508;54.368;18.406;2024-02-21T00:52:53;34.85;;;6.13;;
68315;SDS011;55508;54.368;18.406;2024-02-21T00:55:20;28.88;;;6.35;;
68315;SDS011;55508;54.368;18.406;2024-02-21T00:57:48;37.08;;;7.05;;
68315;SDS011;55508;54.368;18.406;2024-02-21T01:00:15;39.13;;;7.60;;
68315;SDS011;55508;54.368;18.406;2024-02-21T01:02:43;40.60;;;9.02;;
68315;SDS011;55508;54.368;18.406;2024-02-21T01:05:10;43.40;;;8.32;;
68315;SDS011;55508;54.368;18.406;2024-02-21T01:07:38;37.97;;;9.48;;
68315;SDS011;55508;54.368;18.406;2024-02-21T01:10:05;43.28;;;8.10;;
68315;SDS011;55508;54.368;18.406;2024-02-21T01:12:33;40.58;;;8.88;;
68315;SDS011;55508;54.368;18.406;2024-02-21T01:15:01;35.13;;;8.90;;
68315;SDS011;55508;54.368;18.406;2024-02-21T01:17:28;41.92;;;9.25;;
68315;SDS011;55508;54.368;18.406;2024-02-21T01:19:55;35.92;;;8.35;;
68315;SDS011;55508;54.368;18.406;2024-02-21T01:22:23;34.38;;;9.93;;
68315;SDS011;55508;54.368;18.406;2024-02-21T01:24:50;40.28;;;8.90;;
68315;SDS011;55508;54.368;18.406;2024-02-21T01:27:17;37.28;;;8.68;;
68315;SDS011;55508;54.368;18.406;2024-02-21T01:29:45;38.17;;;9.32;;
68315;SDS011;55508;54.368;18.406;2024-02-21T01:32:14;34.97;;;9.15;;
68315;SDS011;55508;54.368;18.406;2024-02-21T01:34:42;38.47;;;10.20;;
68315;SDS011;55508;54.368;18.406;2024-02-21T01:37:10;41.25;;;8.65;;
68315;SDS011;55508;54.368;18.406;2024-02-21T01:39:37;40.55;;;8.77;;
68315;SDS011;55508;54.368;18.406;2024-02-21T01:42:05;33.08;;;8.50;;
68315;SDS011;55508;54.368;18.406;2024-02-21T01:44:32;30.27;;;8.20;;
68315;SDS011;55508;54.368;18.406;2024-02-21T01:46:59;37.38;;;9.23;;
68315;SDS011;55508;54.368;18.406;2024-02-21T01:49:27;36.13;;;8.85;;
68315;SDS011;55508;54.368;18.406;2024-02-21T01:51:54;30.27;;;8.00;;
68315;SDS011;55508;54.368;18.406;2024-02-21T01:54:22;35.97;;;8.30;;
68315;SDS011;55508;54.368;18.406;2024-02-21T01:56:49;32.45;;;7.95;;
68315;SDS011;55508;54.368;18.406;2024-02-21T01:59:17;40.70;;;9.30;;
68315;SDS011;55508;54.368;18.406;2024-02-21T02:01:46;43.25;;;8.60;;
68315;SDS011;55508;54.368;18.406;2024-02-21T02:04:14;33.60;;;8.57;;
68315;SDS011;55508;54.368;18.406;2024-02-21T02:06:41;37.53;;;8.10;;
68315;SDS011;55508;54.368;18.406;2024-02-21T02:09:09;36.38;;;8.35;;
68315;SDS011;55508;54.368;18.406;2024-02-21T02:11:36;40.33;;;7.63;;
68315;SDS011;55508;54.368;18.406;2024-02-21T02:14:04;37.78;;;8.13;;
68315;SDS011;55508;54.368;18.406;2024-02-21T02:16:31;35.90;;;8.15;;
68315;SDS011;55508;54.368;18.406;2024-02-21T02:18:59;38.92;;;8.65;;
68315;SDS011;55508;54.368;18.406;2024-02-21T02:21:29;41.22;;;9.98;;
68315;SDS011;55508;54.368;18.406;2024-02-21T02:23:59;45.22;;;8.95;;
68315;SDS011;55508;54.368;18.406;2024-02-21T02:26:27;31.45;;;8.68;;
68315;SDS011;55508;54.368;18.406;2024-02-21T02:28:54;45.85;;;9.52;;
68315;SDS011;55508;54.368;18.406;2024-02-21T02:31:22;39.92;;;8.75;;
68315;SDS011;55508;54.368;18.406;2024-02-21T02:33:49;30.27;;;8.63;;
68315;SDS011;55508;54.368;18.406;2024-02-21T02:36:17;39.33;;;10.40;;
68315;SDS011;55508;54.368;18.406;2024-02-21T02:38:44;42.47;;;10.45;;
68315;SDS011;55508;54.368;18.406;2024-02-21T02:41:12;42.67;;;10.93;;
68315;SDS011;55508;54.368;18.406;2024-02-21T02:43:39;42.13;;;10.48;;
68315;SDS011;55508;54.368;18.406;2024-02-21T02:46:06;31.55;;;9.73;;
68315;SDS011;55508;54.368;18.406;2024-02-21T02:48:36;34.97;;;9.63;;
68315;SDS011;55508;54.368;18.406;2024-02-21T02:51:05;33.60;;;9.52;;
68315;SDS011;55508;54.368;18.406;2024-02-21T02:53:32;37.92;;;9.25;;
68315;SDS011;55508;54.368;18.406;2024-02-21T02:55:59;35.05;;;9.63;;
68315;SDS011;55508;54.368;18.406;2024-02-21T02:58:27;32.28;;;9.63;;
68315;SDS011;55508;54.368;18.406;2024-02-21T03:00:55;39.58;;;10.10;;
68315;SDS011;55508;54.368;18.406;2024-02-21T03:03:22;36.45;;;9.68;;
68315;SDS011;55508;54.368;18.406;2024-02-21T03:05:49;33.00;;;9.65;;
68315;SDS011;55508;54.368;18.406;2024-02-21T03:08:17;41.15;;;9.98;;
68315;SDS011;55508;54.368;18.406;2024-02-21T03:10:44;36.33;;;10.13;;
68315;SDS011;55508;54.368;18.406;2024-02-21T03:13:12;33.35;;;10.35;;
68315;SDS011;55508;54.368;18.406;2024-02-21T03:15:39;32.75;;;11.38;;
68315;SDS011;55508;54.368;18.406;2024-02-21T03:18:06;40.55;;;10.38;;
68315;SDS011;55508;54.368;18.406;2024-02-21T03:20:34;31.50;;;10.45;;
68315;SDS011;55508;54.368;18.406;2024-02-21T03:23:01;41.80;;;10.60;;
68315;SDS011;55508;54.368;18.406;2024-02-21T03:25:28;43.03;;;10.60;;
68315;SDS011;55508;54.368;18.406;2024-02-21T03:27:56;32.78;;;10.60;;
68315;SDS011;55508;54.368;18.406;2024-02-21T03:30:23;38.03;;;11.70;;
68315;SDS011;55508;54.368;18.406;2024-02-21T03:32:50;50.88;;;12.02;;
68315;SDS011;55508;54.368;18.406;2024-02-21T03:35:18;41.65;;;12.98;;
68315;SDS011;55508;54.368;18.406;2024-02-21T03:37:45;45.45;;;13.90;;
68315;SDS011;55508;54.368;18.406;2024-02-21T03:40:13;34.45;;;11.25;;
68315;SDS011;55508;54.368;18.406;2024-02-21T03:42:40;36.97;;;11.02;;
68315;SDS011;55508;54.368;18.406;2024-02-21T03:45:08;33.13;;;10.77;;
68315;SDS011;55508;54.368;18.406;2024-02-21T03:47:35;41.47;;;12.20;;
68315;SDS011;55508;54.368;18.406;2024-02-21T03:50:03;41.20;;;13.00;;
68315;SDS011;55508;54.368;18.406;2024-02-21T03:52:31;41.78;;;15.00;;
68315;SDS011;55508;54.368;18.406;2024-02-21T03:54:59;40.50;;;14.05;;
68315;SDS011;55508;54.368;18.406;2024-02-21T03:57:26;43.45;;;13.43;;
68315;SDS011;55508;54.368;18.406;2024-02-21T03:59:53;53.05;;;14.18;;
68315;SDS011;55508;54.368;18.406;2024-02-21T04:02:21;37.30;;;12.35;;
68315;SDS011;55508;54.368;18.406;2024-02-21T04:04:48;33.67;;;11.88;;
68315;SDS011;55508;54.368;18.406;2024-02-21T04:07:15;35.60;;;11.45;;
68315;SDS011;55508;54.368;18.406;2024-02-21T04:09:43;30.35;;;10.68;;
68315;SDS011;55508;54.368;18.406;2024-02-21T04:12:10;36.65;;;11.18;;
68315;SDS011;55508;54.368;18.406;2024-02-21T04:14:38;34.28;;;11.30;;
68315;SDS011;55508;54.368;18.406;2024-02-21T04:17:09;40.55;;;12.00;;
68315;SDS011;55508;54.368;18.406;2024-02-21T04:19:36;31.60;;;11.13;;
68315;SDS011;55508;54.368;18.406;2024-02-21T04:22:04;30.70;;;11.02;;
68315;SDS011;55508;54.368;18.406;2024-02-21T04:24:31;30.77;;;10.02;;
68315;SDS011;55508;54.368;18.406;2024-02-21T04:26:58;29.60;;;10.55;;
68315;SDS011;55508;54.368;18.406;2024-02-21T04:29:26;35.20;;;11.70;;
68315;SDS011;55508;54.368;18.406;2024-02-21T04:31:54;31.35;;;11.30;;
68315;SDS011;55508;54.368;18.406;2024-02-21T04:34:22;32.83;;;11.07;;
68315;SDS011;55508;54.368;18.406;2024-02-21T04:36:49;27.85;;;10.95;;
68315;SDS011;55508;54.368;18.406;2024-02-21T04:39:16;22.50;;;8.68;;
68315;SDS011;55508;54.368;18.406;2024-02-21T04:41:44;25.52;;;8.07;;
68315;SDS011;55508;54.368;18.406;2024-02-21T04:44:11;22.13;;;8.77;;
68315;SDS011;55508;54.368;18.406;2024-02-21T04:46:41;30.42;;;10.05;;
68315;SDS011;55508;54.368;18.406;2024-02-21T04:49:09;27.93;;;10.87;;
68315;SDS011;55508;54.368;18.406;2024-02-21T04:51:36;29.98;;;10.65;;
68315;SDS011;55508;54.368;18.406;2024-02-21T04:54:04;27.25;;;10.15;;
68315;SDS011;55508;54.368;18.406;2024-02-21T04:56:31;28.45;;;10.73;;
68315;SDS011;55508;54.368;18.406;2024-02-21T04:58:58;23.27;;;10.57;;
68315;SDS011;55508;54.368;18.406;2024-02-21T05:01:26;19.98;;;9.98;;
68315;SDS011;55508;54.368;18.406;2024-02-21T05:03:55;21.45;;;8.70;;
68315;SDS011;55508;54.368;18.406;2024-02-21T05:06:22;19.70;;;9.40;;
68315;SDS011;55508;54.368;18.406;2024-02-21T05:08:50;23.25;;;9.32;;
68315;SDS011;55508;54.368;18.406;2024-02-21T05:11:17;24.67;;;9.60;;
68315;SDS011;55508;54.368;18.406;2024-02-21T05:13:44;22.70;;;9.75;;
68315;SDS011;55508;54.368;18.406;2024-02-21T05:16:12;34.25;;;11.00;;
68315;SDS011;55508;54.368;18.406;2024-02-21T05:18:40;34.17;;;11.05;;
68315;SDS011;55508;54.368;18.406;2024-02-21T05:21:09;27.00;;;10.77;;
68315;SDS011;55508;54.368;18.406;2024-02-21T05:23:36;23.85;;;10.15;;
68315;SDS011;55508;54.368;18.406;2024-02-21T05:26:04;23.10;;;9.48;;
68315;SDS011;55508;54.368;18.406;2024-02-21T05:28:31;22.42;;;9.30;;
68315;SDS011;55508;54.368;18.406;2024-02-21T05:30:59;21.98;;;9.02;;
68315;SDS011;55508;54.368;18.406;2024-02-21T05:33:26;18.50;;;8.27;;
68315;SDS011;55508;54.368;18.406;2024-02-21T05:35:55;20.25;;;7.90;;
68315;SDS011;55508;54.368;18.406;2024-02-21T05:38:22;16.45;;;8.30;;
68315;SDS011;55508;54.368;18.406;2024-02-21T05:40:49;20.73;;;9.32;;
68315;SDS011;55508;54.368;18.406;2024-02-21T05:43:17;18.92;;;9.05;;
68315;SDS011;55508;54.368;18.406;2024-02-21T05:45:44;23.13;;;9.13;;
68315;SDS011;55508;54.368;18.406;2024-02-21T05:48:11;22.13;;;9.35;;
68315;SDS011;55508;54.368;18.406;2024-02-21T05:50:39;28.35;;;10.80;;
68315;SDS011;55508;54.368;18.406;2024-02-21T05:53:06;19.13;;;9.35;;
68315;SDS011;55508;54.368;18.406;2024-02-21T05:55:33;21.85;;;10.23;;
68315;SDS011;55508;54.368;18.406;2024-02-21T05:58:01;27.73;;;10.98;;
68315;SDS011;55508;54.368;18.406;2024-02-21T06:00:29;28.25;;;11.60;;
68315;SDS011;55508;54.368;18.406;2024-02-21T06:02:56;20.85;;;11.60;;
68315;SDS011;55508;54.368;18.406;2024-02-21T06:05:24;29.52;;;12.02;;
68315;SDS011;55508;54.368;18.406;2024-02-21T06:07:51;29.65;;;12.05;;
68315;SDS011;55508;54.368;18.406;2024-02-21T06:10:18;26.95;;;12.50;;
68315;SDS011;55508;54.368;18.406;2024-02-21T06:12:46;32.13;;;12.65;;
68315;SDS011;55508;54.368;18.406;2024-02-21T06:15:13;28.67;;;13.52;;
68315;SDS011;55508;54.368;18.406;2024-02-21T06:17:40;32.92;;;13.48;;
68315;SDS011;55508;54.368;18.406;2024-02-21T06:20:08;27.65;;;12.57;;
68315;SDS011;55508;54.368;18.406;2024-02-21T06:22:35;30.20;;;12.23;;
68315;SDS011;55508;54.368;18.406;2024-02-21T06:25:03;23.30;;;11.70;;
68315;SDS011;55508;54.368;18.406;2024-02-21T06:27:30;28.98;;;11.85;;
68315;SDS011;55508;54.368;18.406;2024-02-21T06:29:58;24.95;;;12.35;;
68315;SDS011;55508;54.368;18.406;2024-02-21T06:32:25;30.52;;;12.45;;
68315;SDS011;55508;54.368;18.406;2024-02-21T06:34:52;27.15;;;11.93;;
68315;SDS011;55508;54.368;18.406;2024-02-21T06:37:20;27.88;;;12.18;;
68315;SDS011;55508;54.368;18.406;2024-02-21T06:39:47;28.52;;;12.45;;
68315;SDS011;55508;54.368;18.406;2024-02-21T06:42:14;30.63;;;12.75;;
68315;SDS011;55508;54.368;18.406;2024-02-21T06:44:42;34.88;;;12.75;;
68315;SDS011;55508;54.368;18.406;2024-02-21T06:47:09;38.80;;;15.10;;
68315;SDS011;55508;54.368;18.406;2024-02-21T06:49:36;38.65;;;14.30;;
68315;SDS011;55508;54.368;18.406;2024-02-21T06:52:04;35.53;;;12.77;;
68315;SDS011;55508;54.368;18.406;2024-02-21T06:54:32;34.08;;;14.30;;
68315;SDS011;55508;54.368;18.406;2024-02-21T06:56:59;45.17;;;17.38;;
68315;SDS011;55508;54.368;18.406;2024-02-21T06:59:27;40.35;;;16.63;;
68315;SDS011;55508;54.368;18.406;2024-02-21T07:01:54;42.40;;;18.50;;
68315;SDS011;55508;54.368;18.406;2024-02-21T07:04:23;40.28;;;14.18;;
68315;SDS011;55508;54.368;18.406;2024-02-21T07:06:50;30.38;;;12.02;;
68315;SDS011;55508;54.368;18.406;2024-02-21T07:09:18;33.63;;;13.00;;
68315;SDS011;55508;54.368;18.406;2024-02-21T07:11:45;41.42;;;13.63;;
68315;SDS011;55508;54.368;18.406;2024-02-21T07:14:14;50.90;;;16.05;;
68315;SDS011;55508;54.368;18.406;2024-02-21T07:16:42;47.80;;;15.13;;
68315;SDS011;55508;54.368;18.406;2024-02-21T07:19:09;64.30;;;17.58;;
68315;SDS011;55508;54.368;18.406;2024-02-21T07:21:37;54.97;;;19.58;;
68315;SDS011;55508;54.368;18.406;2024-02-21T07:24:09;42.10;;;15.23;;
68315;SDS011;55508;54.368;18.406;2024-02-21T07:26:36;40.63;;;15.18;;
68315;SDS011;55508;54.368;18.406;2024-02-21T07:29:03;51.38;;;17.88;;
68315;SDS011;55508;54.368;18.406;2024-02-21T07:31:31;36.55;;;15.63;;
68315;SDS011;55508;54.368;18.406;2024-02-21T07:33:58;34.85;;;15.45;;
68315;SDS011;55508;54.368;18.406;2024-02-21T07:36:28;44.72;;;16.65;;
68315;SDS011;55508;54.368;18.406;2024-02-21T07:38:56;38.05;;;15.55;;
68315;SDS011;55508;54.368;18.406;2024-02-21T07:41:24;51.65;;;17.75;;
68315;SDS011;55508;54.368;18.406;2024-02-21T07:43:52;37.88;;;15.13;;
68315;SDS011;55508;54.368;18.406;2024-02-21T07:46:19;41.85;;;16.45;;
68315;SDS011;55508;54.368;18.406;2024-02-21T07:48:48;65.40;;;26.88;;
68315;SDS011;55508;54.368;18.406;2024-02-21T07:51:15;74.13;;;29.63;;
68315;SDS011;55508;54.368;18.406;2024-02-21T07:53:46;48.17;;;20.52;;
68315;SDS011;55508;54.368;18.406;2024-02-21T07:56:14;44.67;;;18.88;;
68315;SDS011;55508;54.368;18.406;2024-02-21T07:58:42;62.00;;;26.02;;
68315;SDS011;55508;54.368;18.406;2024-02-21T08:01:10;38.97;;;16.70;;
68315;SDS011;55508;54.368;18.406;2024-02-21T08:03:37;39.88;;;15.50;;
68315;SDS011;55508;54.368;18.406;2024-02-21T08:06:05;29.33;;;15.93;;
68315;SDS011;55508;54.368;18.406;2024-02-21T08:08:32;39.33;;;17.75;;
68315;SDS011;55508;54.368;18.406;2024-02-21T08:10:59;32.25;;;16.58;;
68315;SDS011;55508;54.368;18.406;2024-02-21T08:13:27;43.80;;;20.88;;
68315;SDS011;55508;54.368;18.406;2024-02-21T08:15:55;40.70;;;17.70;;
68315;SDS011;55508;54.368;18.406;2024-02-21T08:18:23;25.20;;;13.00;;
68315;SDS011;55508;54.368;18.406;2024-02-21T08:20:51;23.92;;;12.63;;
68315;SDS011;55508;54.368;18.406;2024-02-21T08:23:18;27.85;;;14.50;;
68315;SDS011;55508;54.368;18.406;2024-02-21T08:25:46;47.40;;;21.02;;
68315;SDS011;55508;54.368;18.406;2024-02-21T08:28:13;23.50;;;14.10;;
68315;SDS011;55508;54.368;18.406;2024-02-21T08:30:41;29.30;;;13.95;;
68315;SDS011;55508;54.368;18.406;2024-02-21T08:33:15;36.85;;;14.57;;
68315;SDS011;55508;54.368;18.406;2024-02-21T08:35:43;27.13;;;14.75;;
68315;SDS011;55508;54.368;18.406;2024-02-21T08:38:11;27.33;;;14.50;;
68315;SDS011;55508;54.368;18.406;2024-02-21T08:40:38;29.90;;;14.15;;
68315;SDS011;55508;54.368;18.406;2024-02-21T08:43:06;33.58;;;17.20;;
68315;SDS011;55508;54.368;18.406;2024-02-21T08:45:33;33.15;;;15.95;;
68315;SDS011;55508;54.368;18.406;2024-02-21T08:48:00;27.65;;;15.43;;
68315;SDS011;55508;54.368;18.406;2024-02-21T08:50:28;29.98;;;15.55;;
68315;SDS011;55508;54.368;18.406;2024-02-21T08:52:56;27.20;;;15.82;;
68315;SDS011;55508;54.368;18.406;2024-02-21T08:55:24;28.55;;;16.42;;
68315;SDS011;55508;54.368;18.406;2024-02-21T08:57:51;34.53;;;17.17;;
68315;SDS011;55508;54.368;18.406;2024-02-21T09:00:19;27.58;;;16.02;;
68315;SDS011;55508;54.368;18.406;2024-02-21T09:02:50;31.73;;;15.52;;
68315;SDS011;55508;54.368;18.406;2024-02-21T09:05:17;34.17;;;17.33;;
68315;SDS011;55508;54.368;18.406;2024-02-21T09:07:46;36.30;;;17.65;;
68315;SDS011;55508;54.368;18.406;2024-02-21T09:10:13;35.20;;;16.83;;
68315;SDS011;55508;54.368;18.406;2024-02-21T09:12:40;30.70;;;17.75;;
68315;SDS011;55508;54.368;18.406;2024-02-21T09:15:08;39.63;;;19.23;;
68315;SDS011;55508;54.368;18.406;2024-02-21T09:17:35;37.97;;;20.52;;
68315;SDS011;55508;54.368;18.406;2024-02-21T09:20:03;40.35;;;19.67;;
68315;SDS011;55508;54.368;18.406;2024-02-21T09:22:31;41.08;;;20.55;;
68315;SDS011;55508;54.368;18.406;2024-02-21T09:25:01;42.38;;;20.88;;
68315;SDS011;55508;54.368;18.406;2024-02-21T09:27:30;40.17;;;20.02;;
68315;SDS011;55508;54.368;18.406;2024-02-21T09:29:57;38.13;;;20.52;;
68315;SDS011;55508;54.368;18.406;2024-02-21T09:32:25;36.75;;;19.33;;
68315;SDS011;55508;54.368;18.406;2024-02-21T09:34:53;32.13;;;20.48;;
68315;SDS011;55508;54.368;18.406;2024-02-21T09:37:26;36.03;;;20.17;;
68315;SDS011;55508;54.368;18.406;2024-02-21T09:39:53;30.63;;;17.92;;
68315;SDS011;55508;54.368;18.406;2024-02-21T09:42:21;24.20;;;17.02;;
68315;SDS011;55508;54.368;18.406;2024-02-21T09:44:48;29.23;;;16.98;;
68315;SDS011;55508;54.368;18.406;2024-02-21T09:47:19;28.73;;;18.38;;
68315;SDS011;55508;54.368;18.406;2024-02-21T09:52:17;28.42;;;15.63;;
68315;SDS011;55508;54.368;18.406;2024-02-21T09:54:45;21.60;;;15.60;;
68315;SDS011;55508;54.368;18.406;2024-02-21T09:57:12;23.02;;;15.13;;
68315;SDS011;55508;54.368;18.406;2024-02-21T09:59:40;22.80;;;16.05;;
68315;SDS011;55508;54.368;18.406;2024-02-21T10:02:10;26.63;;;17.02;;
68315;SDS011;55508;54.368;18.406;2024-02-21T10:04:39;22.23;;;14.63;;
68315;SDS011;55508;54.368;18.406;2024-02-21T10:07:08;18.08;;;12.95;;
68315;SDS011;55508;54.368;18.406;2024-02-21T10:09:36;20.75;;;14.27;;
68315;SDS011;55508;54.368;18.406;2024-02-21T10:12:09;18.98;;;13.13;;
68315;SDS011;55508;54.368;18.406;2024-02-21T10:14:39;18.58;;;11.73;;
68315;SDS011;55508;54.368;18.406;2024-02-21T10:17:08;18.55;;;11.23;;
68315;SDS011;55508;54.368;18.406;2024-02-21T10:19:38;15.00;;;11.52;;
68315;SDS011;55508;54.368;18.406;2024-02-21T10:22:08;19.35;;;12.32;;
68315;SDS011;55508;54.368;18.406;2024-02-21T10:24:36;17.35;;;11.40;;
68315;SDS011;55508;54.368;18.406;2024-02-21T10:27:10;12.35;;;9.90;;
68315;SDS011;55508;54.368;18.406;2024-02-21T10:29:39;15.18;;;10.80;;
68315;SDS011;55508;54.368;18.406;2024-02-21T10:32:13;11.85;;;10.60;;
68315;SDS011;55508;54.368;18.406;2024-02-21T10:34:41;13.90;;;10.93;;
68315;SDS011;55508;54.368;18.406;2024-02-21T10:37:11;16.65;;;8.93;;
68315;SDS011;55508;54.368;18.406;2024-02-21T10:39:39;23.58;;;9.65;;
68315;SDS011;55508;54.368;18.406;2024-02-21T10:42:10;16.55;;;10.07;;
68315;SDS011;55508;54.368;18.406;2024-02-21T10:44:39;14.95;;;10.40;;
68315;SDS011;55508;54.368;18.406;2024-02-21T10:47:09;11.13;;;9.20;;
68315;SDS011;55508;54.368;18.406;2024-02-21T10:49:41;16.42;;;8.82;;
68315;SDS011;55508;54.368;18.406;2024-02-21T10:52:17;13.90;;;8.18;;
68315;SDS011;55508;54.368;18.406;2024-02-21T10:54:58;8.90;;;8.00;;
68315;SDS011;55508;54.368;18.406;2024-02-21T10:57:33;9.98;;;7.90;;
68315;SDS011;55508;54.368;18.406;2024-02-21T11:00:01;17.58;;;8.40;;
68315;SDS011;55508;54.368;18.406;2024-02-21T11:02:30;14.40;;;8.52;;
68315;SDS011;55508;54.368;18.406;2024-02-21T11:04:58;7.45;;;6.75;;
68315;SDS011;55508;54.368;18.406;2024-02-21T11:07:26;9.25;;;6.90;;
68315;SDS011;55508;54.368;18.406;2024-02-21T11:09:54;8.20;;;7.40;;
68315;SDS011;55508;54.368;18.406;2024-02-21T11:12:23;11.18;;;9.23;;
68315;SDS011;55508;54.368;18.406;2024-02-21T11:14:51;10.48;;;8.43;;
68315;SDS011;55508;54.368;18.406;2024-02-21T11:17:18;12.13;;;8.95;;
68315;SDS011;55508;54.368;18.406;2024-02-21T11:19:48;9.65;;;8.65;;
68315;SDS011;55508;54.368;18.406;2024-02-21T11:22:16;10.20;;;8.13;;
68315;SDS011;55508;54.368;18.406;2024-02-21T11:24:45;11.93;;;8.63;;
68315;SDS011;55508;54.368;18.406;2024-02-21T11:27:14;9.00;;;8.07;;
68315;SDS011;55508;54.368;18.406;2024-02-21T11:29:42;10.85;;;8.45;;
68315;SDS011;55508;54.368;18.406;2024-02-21T11:32:10;8.65;;;7.75;;
68315;SDS011;55508;54.368;18.406;2024-02-21T11:34:39;8.68;;;7.88;;
68315;SDS011;55508;54.368;18.406;2024-02-21T11:37:15;8.90;;;7.15;;
68315;SDS011;55508;54.368;18.406;2024-02-21T11:39:43;9.55;;;8.43;;
68315;SDS011;55508;54.368;18.406;2024-02-21T11:42:10;9.00;;;8.07;;
68315;SDS011;55508;54.368;18.406;2024-02-21T11:44:39;12.38;;;8.25;;
68315;SDS011;55508;54.368;18.406;2024-02-21T11:47:07;9.50;;;8.70;;
68315;SDS011;55508;54.368;18.406;2024-02-21T11:49:38;10.90;;;8.05;;
68315;SDS011;55508;54.368;18.406;2024-02-21T11:52:06;7.93;;;7.20;;
68315;SDS011;55508;54.368;18.406;2024-02-21T11:54:33;11.05;;;8.07;;
68315;SDS011;55508;54.368;18.406;2024-02-21T11:57:01;8.00;;;7.30;;
68315;SDS011;55508;54.368;18.406;2024-02-21T11:59:31;6.40;;;5.80;;
68315;SDS011;55508;54.368;18.406;2024-02-21T12:02:02;6.82;;;6.30;;
68315;SDS011;55508;54.368;18.406;2024-02-21T12:04:32;10.15;;;8.43;;
68315;SDS011;55508;54.368;18.406;2024-02-21T12:07:00;11.27;;;7.90;;
68315;SDS011;55508;54.368;18.406;2024-02-21T12:09:30;8.68;;;7.63;;
68315;SDS011;55508;54.368;18.406;2024-02-21T12:12:02;9.32;;;7.55;;
68315;SDS011;55508;54.368;18.406;2024-02-21T12:14:32;8.80;;;7.22;;
68315;SDS011;55508;54.368;18.406;2024-02-21T12:17:01;8.45;;;5.90;;
68315;SDS011;55508;54.368;18.406;2024-02-21T12:19:31;6.75;;;6.10;;
68315;SDS011;55508;54.368;18.406;2024-02-21T12:21:59;6.15;;;5.55;;
68315;SDS011;55508;54.368;18.406;2024-02-21T12:24:28;10.32;;;6.80;;
68315;SDS011;55508;54.368;18.406;2024-02-21T12:26:56;6.72;;;5.78;;
68315;SDS011;55508;54.368;18.406;2024-02-21T12:29:25;6.88;;;5.35;;
68315;SDS011;55508;54.368;18.406;2024-02-21T12:31:52;6.78;;;6.10;;
68315;SDS011;55508;54.368;18.406;2024-02-21T12:34:23;6.57;;;5.97;;
68315;SDS011;55508;54.368;18.406;2024-02-21T12:36:54;7.40;;;4.40;;
68315;SDS011;55508;54.368;18.406;2024-02-21T12:39:21;5.68;;;4.05;;
68315;SDS011;55508;54.368;18.406;2024-02-21T12:41:49;5.50;;;3.80;;
68315;SDS011;55508;54.368;18.406;2024-02-21T12:44:16;5.90;;;3.08;;
68315;SDS011;55508;54.368;18.406;2024-02-21T12:46:45;3.78;;;2.83;;
68315;SDS011;55508;54.368;18.406;2024-02-21T12:49:12;4.15;;;2.78;;
68315;SDS011;55508;54.368;18.406;2024-02-21T12:51:40;3.47;;;2.92;;
68315;SDS011;55508;54.368;18.406;2024-02-21T12:54:09;3.63;;;2.60;;
68315;SDS011;55508;54.368;18.406;2024-02-21T12:56:37;4.03;;;2.35;;
68315;SDS011;55508;54.368;18.406;2024-02-21T12:59:06;3.72;;;2.60;;
68315;SDS011;55508;54.368;18.406;2024-02-21T13:01:36;2.33;;;2.10;;
68315;SDS011;55508;54.368;18.406;2024-02-21T13:04:05;4.28;;;2.47;;
68315;SDS011;55508;54.368;18.406;2024-02-21T13:06:32;3.25;;;2.38;;
68315;SDS011;55508;54.368;18.406;2024-02-21T13:09:00;3.67;;;2.42;;
68315;SDS011;55508;54.368;18.406;2024-02-21T13:11:30;4.57;;;2.55;;
68315;SDS011;55508;54.368;18.406;2024-02-21T13:13:59;3.22;;;2.40;;
68315;SDS011;55508;54.368;18.406;2024-02-21T13:16:26;4.45;;;2.80;;
68315;SDS011;55508;54.368;18.406;2024-02-21T13:18:54;3.22;;;2.70;;
68315;SDS011;55508;54.368;18.406;2024-02-21T13:21:21;5.13;;;2.92;;
68315;SDS011;55508;54.368;18.406;2024-02-21T13:23:49;6.63;;;2.75;;
68315;SDS011;55508;54.368;18.406;2024-02-21T13:26:16;2.83;;;2.22;;
68315;SDS011;55508;54.368;18.406;2024-02-21T13:28:44;4.95;;;2.80;;
68315;SDS011;55508;54.368;18.406;2024-02-21T13:31:12;5.47;;;3.15;;
68315;SDS011;55508;54.368;18.406;2024-02-21T13:33:39;7.55;;;3.45;;
68315;SDS011;55508;54.368;18.406;2024-02-21T13:36:07;5.03;;;3.40;;
68315;SDS011;55508;54.368;18.406;2024-02-21T13:38:35;3.90;;;3.38;;
68315;SDS011;55508;54.368;18.406;2024-02-21T13:41:02;4.07;;;3.33;;
68315;SDS011;55508;54.368;18.406;2024-02-21T13:43:30;3.50;;;3.08;;
68315;SDS011;55508;54.368;18.406;2024-02-21T13:46:01;3.90;;;3.60;;
68315;SDS011;55508;54.368;18.406;2024-02-21T13:48:37;5.88;;;4.18;;
68315;SDS011;55508;54.368;18.406;2024-02-21T13:51:04;4.03;;;3.65;;
68315;SDS011;55508;54.368;18.406;2024-02-21T13:53:32;3.95;;;3.10;;
68315;SDS011;55508;54.368;18.406;2024-02-21T13:56:01;3.53;;;2.90;;
68315;SDS011;55508;54.368;18.406;2024-02-21T13:58:29;4.43;;;2.80;;
68315;SDS011;55508;54.368;18.406;2024-02-21T14:00:56;4.70;;;3.28;;
68315;SDS011;55508;54.368;18.406;2024-02-21T14:03:23;7.45;;;4.28;;
68315;SDS011;55508;54.368;18.406;2024-02-21T14:05:52;4.22;;;3.83;;
68315;SDS011;55508;54.368;18.406;2024-02-21T14:08:20;5.13;;;4.63;;
68315;SDS011;55508;54.368;18.406;2024-02-21T14:10:47;7.97;;;5.95;;
68315;SDS011;55508;54.368;18.406;2024-02-21T14:13:15;8.48;;;6.20;;
68315;SDS011;55508;54.368;18.406;2024-02-21T14:15:44;8.50;;;7.60;;
68315;SDS011;55508;54.368;18.406;2024-02-21T14:18:16;8.10;;;6.53;;
68315;SDS011;55508;54.368;18.406;2024-02-21T14:20:44;9.52;;;6.00;;
68315;SDS011;55508;54.368;18.406;2024-02-21T14:23:13;7.97;;;5.85;;
68315;SDS011;55508;54.368;18.406;2024-02-21T14:25:41;11.35;;;6.75;;